Time;durP1;ratioP1;P1;durP2;ratioP2;P2;SDS_P1;SDS_P2;PMS_P1;PMS_P2;Temp;Humidity;BMP_temperature;BMP_pressure;BME280_temperature;BME280_humidity;BME280_pressure;Samples;Min_cycle;Max_cycle;Signal;HPM_P1;HPM_P2
2023/10/26 00:01:02;;;;;;;19.80;4.77;;;;;;;21.07;53.84;98126.81;6189370;23;20178;-89
2023/10/26 00:03:28;;;;;;;13.20;3.97;;;;;;;20.94;54.25;98111.28;6215762;23;20184;-89
2023/10/26 00:05:53;;;;;;;10.73;4.10;;;;;;;20.84;54.30;98100.00;6216928;23;20311;-89
2023/10/26 00:08:19;;;;;;;18.27;4.93;;;;;;;20.82;54.43;98099.34;6216057;23;20150;-90
2023/10/26 00:10:46;;;;;;;20.97;5.67;;;;;;;20.86;54.01;98113.16;6189390;23;20160;-88
2023/10/26 00:13:11;;;;;;;12.00;4.83;;;;;;;21.00;53.70;98101.78;6216350;23;20229;-89
2023/10/26 00:15:37;;;;;;;11.90;4.67;;;;;;;20.97;53.62;98100.28;6216003;23;20196;-89
2023/10/26 00:18:03;;;;;;;13.03;4.83;;;;;;;20.86;53.83;98113.97;6215646;23;20149;-89
2023/10/26 00:20:28;;;;;;;14.87;5.80;;;;;;;20.66;54.59;98118.84;6215578;23;20256;-89
2023/10/26 00:22:54;;;;;;;15.47;5.07;;;;;;;20.59;54.80;98109.03;6215645;23;20157;-89
2023/10/26 00:25:20;;;;;;;12.97;4.77;;;;;;;20.44;55.32;98103.53;6215919;23;20146;-89
2023/10/26 00:27:45;;;;;;;14.80;6.20;;;;;;;20.44;55.43;98113.38;6189294;23;20157;-89
2023/10/26 00:30:11;;;;;;;17.47;4.23;;;;;;;20.37;55.72;98117.69;6216014;23;20227;-89
2023/10/26 00:32:37;;;;;;;14.87;5.20;;;;;;;20.35;55.64;98115.22;6189353;23;20154;-88
2023/10/26 00:35:03;;;;;;;24.53;5.13;;;;;;;20.30;56.08;98108.72;6189137;23;20556;-89
2023/10/26 00:37:30;;;;;;;12.10;5.33;;;;;;;20.23;56.29;98111.16;6215827;23;20150;-89
2023/10/26 00:39:55;;;;;;;10.37;5.43;;;;;;;20.31;55.98;98121.03;6189218;23;20180;-89
2023/10/26 00:42:21;;;;;;;12.87;5.10;;;;;;;20.23;56.40;98128.00;6215523;23;20161;-88
2023/10/26 00:44:46;;;;;;;15.27;4.87;;;;;;;20.16;56.55;98129.63;6215458;23;20596;-89
2023/10/26 00:47:14;;;;;;;14.10;5.30;;;;;;;20.13;56.57;98121.16;6216078;23;20153;-89
2023/10/26 00:49:43;;;;;;;14.70;4.60;;;;;;;20.05;57.15;98114.00;6215461;23;20157;-88
2023/10/26 00:52:10;;;;;;;26.87;6.00;;;;;;;20.00;57.67;98094.19;6215464;23;20161;-89
2023/10/26 00:54:40;;;;;;;14.50;4.57;;;;;;;19.95;57.98;98091.19;6189196;23;20407;-89
2023/10/26 00:57:06;;;;;;;16.10;5.07;;;;;;;19.95;58.29;98102.69;6189419;23;20157;-89
2023/10/26 00:59:32;;;;;;;15.77;5.37;;;;;;;19.99;58.38;98121.81;6215682;23;20211;-89
2023/10/26 01:02:00;;;;;;;13.87;5.57;;;;;;;20.10;58.12;98130.28;6189127;23;20231;-89
2023/10/26 01:04:26;;;;;;;13.70;4.90;;;;;;;20.03;58.75;98113.34;6215185;23;20165;-88
2023/10/26 01:06:51;;;;;;;14.77;4.77;;;;;;;20.21;58.74;98095.38;6215378;23;20146;-89
2023/10/26 01:09:17;;;;;;;15.27;5.07;;;;;;;20.33;59.64;98098.59;6216019;23;20154;-89
2023/10/26 01:11:42;;;;;;;14.93;5.13;;;;;;;20.25;59.75;98097.75;6215401;23;20168;-89
2023/10/26 01:14:08;;;;;;;14.80;4.97;;;;;;;20.14;59.79;98091.72;6189101;23;20150;-89
2023/10/26 01:16:35;;;;;;;15.90;4.43;;;;;;;19.96;60.59;98091.06;6215320;23;20160;-89
2023/10/26 01:19:03;;;;;;;15.97;4.63;;;;;;;19.92;61.17;98089.69;6215290;23;20150;-89
2023/10/26 01:21:29;;;;;;;13.20;4.40;;;;;;;20.08;61.00;98096.88;6188984;23;20177;-89
2023/10/26 01:23:55;;;;;;;18.37;5.27;;;;;;;20.02;61.29;98087.72;6215539;23;20220;-89
2023/10/26 01:26:20;;;;;;;7.30;3.97;;;;;;;19.91;61.86;98080.06;6215320;23;20146;-89
2023/10/26 01:28:46;;;;;;;12.47;5.00;;;;;;;19.91;62.27;98073.91;6215245;23;20654;-89
2023/10/26 01:31:16;;;;;;;13.77;5.43;;;;;;;19.85;62.25;98078.06;6188868;23;20177;-88
2023/10/26 01:33:41;;;;;;;16.43;4.77;;;;;;;19.88;62.14;98075.09;6189040;23;20189;-89
2023/10/26 01:36:06;;;;;;;17.40;5.17;;;;;;;19.87;61.52;98078.72;6215202;23;20146;-89
2023/10/26 01:38:32;;;;;;;22.03;5.10;;;;;;;19.88;60.99;98101.69;6215516;23;20161;-89
2023/10/26 01:40:58;;;;;;;12.17;4.40;;;;;;;19.80;60.90;98087.53;6190443;23;20150;-89
2023/10/26 01:43:25;;;;;;;16.13;5.00;;;;;;;19.83;60.45;98093.38;6189615;23;20157;-89
2023/10/26 01:45:50;;;;;;;15.53;5.53;;;;;;;19.86;60.28;98090.38;6215141;23;20173;-89
2023/10/26 01:48:15;;;;;;;16.10;5.83;;;;;;;19.87;59.75;98092.03;6190243;23;20223;-89
2023/10/26 01:50:41;;;;;;;20.17;5.23;;;;;;;19.92;59.52;98103.00;6190680;23;20181;-89
2023/10/26 01:53:06;;;;;;;9.80;5.10;;;;;;;19.84;59.50;98108.31;6216931;23;20188;-89
2023/10/26 01:55:32;;;;;;;15.87;5.37;;;;;;;19.72;59.62;98114.09;6190744;23;20548;-89
2023/10/26 01:57:57;;;;;;;12.57;5.43;;;;;;;19.68;59.69;98124.22;6217243;23;20146;-89
2023/10/26 02:00:23;;;;;;;12.33;4.97;;;;;;;19.68;59.42;98116.25;6216990;23;20146;-88
2023/10/26 02:02:49;;;;;;;14.23;4.67;;;;;;;19.72;59.45;98117.59;6217507;23;20150;-89
2023/10/26 02:05:16;;;;;;;14.60;5.63;;;;;;;19.75;59.36;98119.94;6190306;23;20526;-89
2023/10/26 02:07:42;;;;;;;13.30;4.07;;;;;;;19.60;59.40;98114.41;6190534;23;20600;-89
2023/10/26 02:10:08;;;;;;;19.53;4.90;;;;;;;19.55;59.26;98100.75;6217089;23;20188;-89
2023/10/26 02:12:34;;;;;;;10.87;4.30;;;;;;;19.42;59.21;98091.56;6217062;23;20191;-88
2023/10/26 02:14:59;;;;;;;14.67;4.17;;;;;;;19.33;59.75;98087.22;6216747;23;20219;-88
2023/10/26 02:17:25;;;;;;;13.53;5.83;;;;;;;19.23;59.45;98089.16;6191526;23;20248;-89
2023/10/26 02:19:50;;;;;;;18.23;5.07;;;;;;;19.22;59.73;98108.75;6216763;23;20603;-89
2023/10/26 02:22:16;;;;;;;10.90;4.30;;;;;;;19.26;59.30;98116.22;6190563;23;20157;-88
2023/10/26 02:24:41;;;;;;;17.33;5.30;;;;;;;19.33;58.92;98111.97;6190421;23;20164;-89
2023/10/26 02:27:07;;;;;;;19.47;5.13;;;;;;;19.29;58.84;98104.44;6216638;23;20152;-89
2023/10/26 02:29:33;;;;;;;13.67;4.47;;;;;;;19.24;59.21;98096.13;6216466;23;20150;-89
2023/10/26 02:31:58;;;;;;;12.87;4.40;;;;;;;19.22;59.09;98103.44;6216629;23;20238;-89
2023/10/26 02:34:23;;;;;;;15.07;4.83;;;;;;;19.07;59.14;98105.03;6216978;23;20184;-88
2023/10/26 02:36:49;;;;;;;13.33;4.73;;;;;;;19.08;59.05;98090.78;6216666;23;20158;-89
2023/10/26 02:39:14;;;;;;;14.43;4.83;;;;;;;19.06;59.07;98090.06;6217070;23;20227;-88
2023/10/26 02:41:40;;;;;;;17.50;4.80;;;;;;;19.11;59.19;98085.13;6190404;23;20141;-89
2023/10/26 02:44:05;;;;;;;16.30;4.50;;;;;;;19.03;58.95;98097.38;6216520;23;20150;-89
2023/10/26 02:46:31;;;;;;;13.70;4.97;;;;;;;19.00;59.03;98100.34;6190254;23;20228;-89
2023/10/26 02:48:57;;;;;;;17.80;4.30;;;;;;;19.05;59.03;98107.03;6190303;23;20246;-89
2023/10/26 02:51:24;;;;;;;12.73;4.53;;;;;;;18.95;59.23;98110.63;6216332;23;20176;-89
2023/10/26 02:53:49;;;;;;;9.40;4.33;;;;;;;18.95;59.59;98118.56;6216727;23;20161;-89
2023/10/26 02:56:15;;;;;;;12.97;4.57;;;;;;;19.00;58.78;98110.97;6216352;23;20151;-89
2023/10/26 02:58:40;;;;;;;15.40;4.30;;;;;;;18.92;59.17;98110.91;6217013;23;20152;-89
2023/10/26 03:01:05;;;;;;;13.50;4.37;;;;;;;18.90;59.08;98112.91;6216674;23;20157;-89
2023/10/26 03:03:31;;;;;;;11.10;4.97;;;;;;;18.83;59.60;98114.53;6190091;23;20157;-89
2023/10/26 03:06:00;;;;;;;10.17;4.30;;;;;;;18.77;59.46;98109.84;6216122;23;20172;-89
2023/10/26 03:08:26;;;;;;;15.27;5.60;;;;;;;18.71;59.87;98109.66;6189936;23;20154;-89
2023/10/26 03:10:51;;;;;;;12.60;4.63;;;;;;;18.65;59.97;98104.97;6216545;23;20192;-89
2023/10/26 03:13:17;;;;;;;16.87;5.67;;;;;;;18.85;59.73;98117.03;6189981;23;20224;-89
2023/10/26 03:15:42;;;;;;;16.17;6.10;;;;;;;19.00;59.53;98118.94;6216516;23;20181;-89
2023/10/26 03:18:08;;;;;;;13.13;4.90;;;;;;;18.99;59.54;98125.25;6189918;23;20296;-89
2023/10/26 03:20:33;;;;;;;11.40;5.00;;;;;;;18.92;60.26;98118.88;6217146;23;20207;-88
2023/10/26 03:22:59;;;;;;;15.83;4.93;;;;;;;18.84;60.72;98105.56;6216110;23;20157;-88
2023/10/26 03:25:24;;;;;;;14.83;4.67;;;;;;;18.79;61.42;98110.50;6216465;23;20150;-89
2023/10/26 03:27:50;;;;;;;15.20;4.67;;;;;;;18.75;61.50;98114.50;6189876;23;20576;-89
2023/10/26 03:30:17;;;;;;;13.10;4.20;;;;;;;18.73;62.05;98115.63;6215943;23;20196;-89
2023/10/26 03:32:44;;;;;;;13.97;3.63;;;;;;;18.66;62.61;98109.25;6216409;23;20228;-88
2023/10/26 03:35:09;;;;;;;11.57;3.90;;;;;;;18.71;62.94;98110.47;6215971;23;20153;-88
2023/10/26 03:37:36;;;;;;;13.93;4.30;;;;;;;18.80;62.84;98103.38;6215958;23;20146;-89
2023/10/26 03:40:05;;;;;;;10.77;3.90;;;;;;;18.74;63.22;98104.84;6216253;23;20570;-89
2023/10/26 03:42:31;;;;;;;18.90;3.77;;;;;;;18.69;63.79;98096.53;6216048;23;20166;-88
2023/10/26 03:44:57;;;;;;;18.37;3.70;;;;;;;18.78;63.65;98105.38;6190404;23;20486;-88
2023/10/26 03:47:23;;;;;;;14.27;3.73;;;;;;;18.90;63.46;98115.56;6216001;23;20154;-89
2023/10/26 03:49:51;;;;;;;17.57;3.80;;;;;;;18.88;63.17;98106.94;6215768;23;20157;-89
2023/10/26 03:52:19;;;;;;;12.23;3.33;;;;;;;18.84;63.17;98089.63;6189592;23;20492;-89
2023/10/26 03:54:45;;;;;;;13.63;3.67;;;;;;;18.83;63.28;98081.84;6215827;23;20213;-89
2023/10/26 03:57:10;;;;;;;16.60;3.60;;;;;;;18.88;63.62;98091.00;6216181;23;20156;-89
2023/10/26 03:59:35;;;;;;;12.97;4.53;;;;;;;18.94;63.56;98085.06;6215805;23;20153;-89
2023/10/26 04:02:15;;;;;;;13.13;3.77;;;;;;;18.98;63.32;98081.09;6215744;23;20146;-89
2023/10/26 04:04:42;;;;;;;18.17;4.20;;;;;;;18.96;63.04;98071.63;6215959;23;20567;-89
2023/10/26 04:07:08;;;;;;;14.97;4.80;;;;;;;18.97;63.05;98062.69;6215738;23;20149;-89
2023/10/26 04:09:33;;;;;;;16.23;5.13;;;;;;;19.00;63.31;98068.47;6215877;23;20160;-88
2023/10/26 04:11:58;;;;;;;13.47;3.57;;;;;;;19.01;63.36;98080.78;6215372;23;20178;-88
2023/10/26 04:14:27;;;;;;;16.93;3.40;;;;;;;19.05;63.17;98102.53;6215680;23;20154;-89
2023/10/26 04:16:52;;;;;;;11.67;3.97;;;;;;;19.13;62.82;98099.91;6189459;23;20579;-88
2023/10/26 04:19:18;;;;;;;11.33;4.63;;;;;;;19.22;62.33;98087.50;6215683;23;20188;-88
2023/10/26 04:21:44;;;;;;;10.07;4.33;;;;;;;19.12;62.37;98084.13;6215697;23;20208;-88
2023/10/26 04:24:09;;;;;;;13.63;3.60;;;;;;;19.08;62.69;98086.28;6215928;23;20145;-88
2023/10/26 04:26:35;;;;;;;28.30;4.80;;;;;;;19.02;63.20;98068.34;6215876;23;20170;-88
2023/10/26 04:29:00;;;;;;;14.07;4.37;;;;;;;18.97;63.75;98039.56;6215554;23;20160;-88
2023/10/26 04:31:26;;;;;;;18.87;4.63;;;;;;;19.03;64.20;98024.84;6215455;23;20184;-88
2023/10/26 04:33:51;;;;;;;19.97;4.07;;;;;;;19.14;63.84;98013.09;6215557;23;20163;-89
2023/10/26 04:36:20;;;;;;;18.03;4.03;;;;;;;19.10;64.60;98017.91;6215509;23;20149;-88
2023/10/26 04:38:45;;;;;;;12.13;3.77;;;;;;;19.15;64.79;98043.97;6189260;23;20580;-88
2023/10/26 04:41:11;;;;;;;17.83;4.37;;;;;;;19.31;64.50;98038.72;6215262;23;20277;-89
2023/10/26 04:43:36;;;;;;;24.07;4.23;;;;;;;19.27;64.77;98016.09;6186760;23;20154;-89
2023/10/26 04:46:02;;;;;;;15.80;4.33;;;;;;;19.31;64.71;98001.53;6187206;23;20168;-89
2023/10/26 04:48:27;;;;;;;18.83;4.47;;;;;;;19.28;65.16;98018.63;6215376;23;20157;-89
2023/10/26 04:50:53;;;;;;;17.33;4.87;;;;;;;19.24;65.18;98030.56;6186718;23;20650;-89
2023/10/26 04:53:18;;;;;;;21.27;3.50;;;;;;;19.30;65.11;98021.94;6214540;23;20641;-89
2023/10/26 04:55:44;;;;;;;15.37;4.27;;;;;;;19.34;65.14;98025.91;6215253;23;20150;-89
2023/10/26 04:58:09;;;;;;;15.50;5.07;;;;;;;19.33;65.51;98016.31;6189142;23;20585;-89
2023/10/26 05:00:35;;;;;;;10.30;3.50;;;;;;;19.35;65.37;98026.75;6215420;23;20151;-89
2023/10/26 05:03:01;;;;;;;14.00;3.70;;;;;;;19.30;65.57;98027.25;6215752;23;20557;-89
2023/10/26 05:05:26;;;;;;;15.30;4.10;;;;;;;19.35;65.37;98035.56;6189052;23;20207;-89
2023/10/26 05:07:52;;;;;;;13.83;4.87;;;;;;;19.48;65.16;98029.81;6189088;23;20236;-89
2023/10/26 05:10:18;;;;;;;16.13;5.20;;;;;;;19.54;64.75;98045.13;6215601;23;20211;-89
2023/10/26 05:12:44;;;;;;;17.70;3.90;;;;;;;19.68;64.51;98033.81;6216392;23;20150;-89
2023/10/26 05:15:09;;;;;;;20.33;5.23;;;;;;;19.80;63.88;98029.88;6215553;23;20213;-89
2023/10/26 05:17:37;;;;;;;14.10;4.37;;;;;;;19.73;64.48;98026.22;6215677;23;20276;-89
2023/10/26 05:20:03;;;;;;;17.03;4.67;;;;;;;19.71;65.23;98022.88;6189503;23;20593;-89
2023/10/26 05:22:28;;;;;;;11.43;3.93;;;;;;;19.81;66.00;98042.16;6216859;23;20469;-89
2023/10/26 05:24:54;;;;;;;9.03;3.43;;;;;;;19.94;66.22;98041.69;6191222;23;20154;-89
2023/10/26 05:27:19;;;;;;;12.90;4.50;;;;;;;20.10;65.93;98034.50;6217304;23;20149;-89
2023/10/26 05:29:45;;;;;;;18.63;3.90;;;;;;;20.34;65.33;98022.22;6191362;23;20609;-89
2023/10/26 05:32:10;;;;;;;15.53;4.60;;;;;;;20.57;65.02;98039.16;6217201;23;20160;-89
2023/10/26 05:34:39;;;;;;;18.53;4.67;;;;;;;20.73;64.55;98036.44;6217199;23;20619;-89
2023/10/26 05:37:04;;;;;;;12.07;3.87;;;;;;;20.81;64.24;98026.59;6190850;23;20481;-89
2023/10/26 05:39:32;;;;;;;15.23;4.10;;;;;;;20.95;64.16;98014.38;6217472;23;20150;-89
2023/10/26 05:41:58;;;;;;;14.87;4.77;;;;;;;21.11;64.03;98017.03;6217097;23;20142;-89
2023/10/26 05:44:25;;;;;;;11.77;3.73;;;;;;;21.17;63.88;98037.63;6190838;23;20212;-89
2023/10/26 05:46:50;;;;;;;18.97;4.80;;;;;;;21.19;64.04;98035.63;6217370;23;20229;-90
2023/10/26 05:49:16;;;;;;;9.83;4.47;;;;;;;21.32;63.94;98019.06;6217009;23;20173;-90
2023/10/26 05:51:41;;;;;;;12.57;3.97;;;;;;;21.44;63.92;98031.81;6191156;23;20185;-90
2023/10/26 05:54:07;;;;;;;14.43;4.17;;;;;;;21.53;64.23;98037.94;6217361;23;20154;-90
2023/10/26 05:56:32;;;;;;;15.87;4.30;;;;;;;21.73;63.57;98049.81;6190787;23;20201;-90
2023/10/26 05:58:58;;;;;;;14.77;4.47;;;;;;;21.82;63.40;98053.25;6217292;23;20149;-90
2023/10/26 06:01:23;;;;;;;16.80;5.17;;;;;;;21.89;63.38;98059.56;6190632;23;20156;-89
2023/10/26 06:03:51;;;;;;;14.90;4.63;;;;;;;22.01;63.56;98058.97;6190613;23;20153;-90
2023/10/26 06:06:19;;;;;;;13.63;4.10;;;;;;;22.11;63.56;98069.44;6216947;23;20154;-90
2023/10/26 06:08:47;;;;;;;11.13;4.40;;;;;;;22.10;63.59;98072.25;6190622;23;20448;-90
2023/10/26 06:11:13;;;;;;;9.10;4.97;;;;;;;21.95;64.61;98064.22;6217062;23;20204;-90
2023/10/26 06:13:38;;;;;;;14.30;4.80;;;;;;;22.04;64.96;98063.97;6216867;23;20561;-90
2023/10/26 06:16:04;;;;;;;44.13;16.83;;;;;;;22.13;65.18;98072.75;6190978;23;20576;-90
2023/10/26 06:18:30;;;;;;;83.13;35.90;;;;;;;22.20;64.88;98067.50;6216783;23;20565;-90
2023/10/26 06:20:58;;;;;;;31.03;13.30;;;;;;;22.30;64.90;98076.13;6190569;23;20150;-91
2023/10/26 06:23:23;;;;;;;418.70;182.03;;;;;;;22.43;64.32;98077.13;6190510;23;20499;-90
2023/10/26 06:25:58;;;;;;;649.83;332.63;;;;;;;22.54;64.26;98082.06;6190481;23;20190;-90
2023/10/26 06:28:24;;;;;;;523.20;245.73;;;;;;;22.65;64.34;98072.78;6191530;23;20241;-90
2023/10/26 06:30:52;;;;;;;568.50;232.67;;;;;;;22.77;63.91;98092.72;6217686;23;20173;-90
2023/10/26 06:33:18;;;;;;;746.33;344.67;;;;;;;22.84;63.40;98103.50;6216782;23;20154;-90
2023/10/26 06:35:46;;;;;;;739.40;381.10;;;;;;;22.90;63.27;98116.13;6216600;23;20153;-90
2023/10/26 06:38:12;;;;;;;402.13;157.10;;;;;;;22.91;62.95;98107.09;6216667;23;20145;-90
2023/10/26 06:40:47;;;;;;;36.50;16.70;;;;;;;22.82;62.62;98103.69;6191120;23;20146;-91
2023/10/26 06:43:12;;;;;;;34.63;13.03;;;;;;;22.95;62.52;98113.75;6190376;23;20558;-90
2023/10/26 06:45:38;;;;;;;120.93;37.43;;;;;;;23.17;61.59;98112.81;6217200;23;20211;-90
2023/10/26 06:48:06;;;;;;;437.80;135.83;;;;;;;23.26;61.00;98122.41;6216498;23;20150;-90
2023/10/26 06:50:32;;;;;;;159.60;66.63;;;;;;;23.17;60.79;98134.19;6216869;23;20204;-91
2023/10/26 06:53:18;;;;;;;;;;;;;;;;;;;;;
2023/10/26 06:55:48;;;;;;;22.97;9.80;;;;;;;23.32;59.01;98127.03;6217349;23;20217;-90
2023/10/26 06:58:17;;;;;;;120.87;49.90;;;;;;;23.29;57.41;98130.06;6190871;23;20504;-91
2023/10/26 07:00:55;;;;;;;;;;;;;;;;;;;;;
2023/10/26 07:03:28;;;;;;;19.77;5.23;;;;;;;23.30;56.59;98141.56;6216729;23;20236;-91
2023/10/26 07:05:56;;;;;;;9.03;3.30;;;;;;;23.33;56.22;98141.22;6190117;23;20165;-90
2023/10/26 07:08:26;;;;;;;12.07;3.23;;;;;;;23.32;55.34;98145.75;6190491;23;20165;-90
2023/10/26 07:10:59;;;;;;;14.10;3.63;;;;;;;23.38;55.44;98145.03;6190113;23;20208;-91
2023/10/26 07:13:26;;;;;;;20.97;4.03;;;;;;;23.41;55.02;98159.88;6216746;23;20141;-91
2023/10/26 07:16:04;;;;;;;13.13;4.33;;;;;;;23.45;54.43;98162.00;6190402;23;20488;-91
2023/10/26 07:18:30;;;;;;;96.47;38.20;;;;;;;23.59;54.07;98168.34;6190695;23;20303;-90
2023/10/26 07:21:10;;;;;;;18.27;6.47;;;;;;;23.52;53.55;98178.97;6189976;23;20181;-91
2023/10/26 07:23:46;;;;;;;17.40;4.63;;;;;;;23.50;52.55;98178.34;6216636;23;20134;-90
2023/10/26 07:26:32;;;;;;;19.53;4.90;;;;;;;23.54;51.87;98186.78;6190292;23;20560;-91
2023/10/26 07:29:11;;;;;;;12.13;4.03;;;;;;;23.52;52.07;98176.28;6190263;23;20211;-91
2023/10/26 07:31:41;;;;;;;51.60;21.43;;;;;;;23.45;51.54;98164.69;6191270;23;20244;-90
2023/10/26 07:34:14;;;;;;;79.50;26.30;;;;;;;23.68;50.28;98161.88;6190604;23;20232;-91
2023/10/26 07:36:40;;;;;;;196.40;60.00;;;;;;;23.70;50.61;98159.84;6215992;23;20161;-91
2023/10/26 07:39:20;;;;;;;178.07;63.70;;;;;;;23.63;50.67;98141.06;6189733;23;20161;-90
2023/10/26 07:41:50;;;;;;;94.30;32.97;;;;;;;23.74;50.55;98132.50;6190472;23;20177;-90
2023/10/26 07:44:18;;;;;;;34.53;12.37;;;;;;;23.81;50.09;98135.28;6216003;23;20130;-89
2023/10/26 07:46:54;;;;;;;16.03;4.97;;;;;;;23.79;49.66;98131.97;6189780;23;20524;-90
2023/10/26 07:49:45;;;;;;;13.63;6.43;;;;;;;23.73;50.05;98105.97;6216329;23;20137;-90
2023/10/26 07:52:15;;;;;;;14.90;5.67;;;;;;;23.64;50.08;98102.56;6216638;23;20540;-90
2023/10/26 07:54:40;;;;;;;19.37;5.67;;;;;;;23.52;50.55;98132.66;6189858;23;20172;-90
2023/10/26 07:57:06;;;;;;;15.80;5.30;;;;;;;23.49;50.80;98136.53;6189982;23;20232;-90
2023/10/26 07:59:59;;;;;;;29.10;7.97;;;;;;;23.63;51.07;98102.75;6215933;23;20154;-90
2023/10/26 08:02:37;;;;;;;;;;;;;;;;;;;;;
2023/10/26 08:05:12;;;;;;;21.63;6.13;;;;;;;23.64;50.92;98073.13;6216132;23;20252;-91
2023/10/26 08:07:40;;;;;;;17.77;6.37;;;;;;;23.59;51.08;98072.88;6216212;23;20540;-90
2023/10/26 08:10:14;;;;;;;22.83;7.40;;;;;;;23.55;50.77;98082.28;6189446;23;20182;-90
2023/10/26 08:12:45;;;;;;;19.70;6.67;;;;;;;23.53;50.55;98068.25;6190587;23;20157;-90
2023/10/26 08:15:34;;;;;;;15.43;6.43;;;;;;;23.55;50.27;98057.38;6189608;23;20149;-90
2023/10/26 08:18:02;;;;;;;17.43;6.17;;;;;;;23.49;50.52;98071.50;6190561;23;20217;-91
2023/10/26 08:20:27;;;;;;;20.77;6.90;;;;;;;23.36;50.73;98065.97;6189682;23;20485;-90
2023/10/26 08:23:11;;;;;;;20.03;7.20;;;;;;;23.31;50.67;98074.56;6189770;23;20234;-89
2023/10/26 08:25:44;;;;;;;29.13;8.13;;;;;;;23.25;50.84;98080.63;6190078;23;20153;-90
2023/10/26 08:28:09;;;;;;;18.67;7.23;;;;;;;23.23;50.85;98080.00;6189413;23;20469;-90
2023/10/26 08:30:42;;;;;;;25.53;8.30;;;;;;;23.16;51.27;98087.13;6190095;23;20176;-91
2023/10/26 08:33:11;;;;;;;16.67;7.13;;;;;;;23.18;51.31;98085.06;6215973;23;20146;-90
2023/10/26 08:35:39;;;;;;;27.13;8.23;;;;;;;23.29;51.44;98092.63;6189731;23;20149;-90
2023/10/26 08:38:05;;;;;;;23.27;7.33;;;;;;;23.32;51.57;98113.66;6189338;23;20612;-91
2023/10/26 08:40:30;;;;;;;81.03;26.47;;;;;;;23.35;51.24;98113.25;6189305;23;20153;-91
2023/10/26 08:42:57;;;;;;;37.10;12.37;;;;;;;23.39;51.39;98106.56;6189381;23;20185;-90
2023/10/26 08:45:27;;;;;;;19.13;8.57;;;;;;;23.42;51.63;98106.22;6190091;23;20181;-90
2023/10/26 08:47:56;;;;;;;17.83;6.67;;;;;;;23.54;51.68;98107.38;6189350;23;20168;-91
2023/10/26 08:50:23;;;;;;;23.33;6.53;;;;;;;23.64;51.44;98115.09;6189355;23;20185;-90
2023/10/26 08:52:54;;;;;;;21.63;8.20;;;;;;;23.68;51.97;98117.22;6189696;23;20157;-90
2023/10/26 08:55:20;;;;;;;52.30;15.87;;;;;;;23.64;52.26;98118.59;6189330;23;20150;-91
2023/10/26 08:58:04;;;;;;;;;;;;;;;;;;;;;
2023/10/26 09:00:43;;;;;;;31.23;12.93;;;;;;;23.91;51.35;98118.91;6218439;23;20209;-91
2023/10/26 09:03:08;;;;;;;24.93;8.80;;;;;;;23.92;51.57;98112.56;6218033;23;20134;-91
2023/10/26 09:05:56;;;;;;;26.87;10.10;;;;;;;24.00;51.33;98112.44;6191542;23;20546;-91
2023/10/26 09:09:16;;;;;;;23.97;7.93;;;;;;;24.03;51.34;98101.34;6191381;23;20146;-91
2023/10/26 09:15:20;;;;;;;13.50;5.70;;;;;;;24.35;50.66;98108.88;6217437;23;20154;-91
2023/10/26 09:21:10;;;;;;;;;;;;;;;;;;;;;
2023/10/26 09:24:11;;;;;;;;;;;;;;;;;;;;;
2023/10/26 09:27:05;;;;;;;15.37;4.53;;;;;;;24.38;50.12;98122.72;6217657;23;20228;-91
2023/10/26 09:30:19;;;;;;;;;;;;;;;;;;;;;
2023/10/26 09:32:52;;;;;;;18.87;4.97;;;;;;;24.43;50.30;98131.03;6217345;23;20257;-90
2023/10/26 09:35:46;;;;;;;;;;;;;;;;;;;;;
2023/10/26 09:38:54;;;;;;;;;;;;;;;;;;;;;
2023/10/26 09:42:01;;;;;;;;;;;;;;;;;;;;;
2023/10/26 09:44:37;;;;;;;20.17;5.23;;;;;;;24.56;52.02;98102.66;6210440;23;20566;-91
2023/10/26 09:48:02;;;;;;;;;;;;;;;;;;;;;
2023/10/26 09:51:00;;;;;;;;;;;;;;;;;;;;;
2023/10/26 09:54:24;;;;;;;15.23;5.57;;;;;;;24.80;49.57;98108.47;6216961;23;20221;-91
2023/10/26 09:57:48;;;;;;;;;;;;;;;;;;;;;
2023/10/26 10:01:03;;;;;;;;;;;;;;;;;;;;;
2023/10/26 10:04:09;;;;;;;16.97;5.77;;;;;;;24.86;50.30;98102.34;6217311;23;20228;-90
2023/10/26 10:07:43;;;;;;;;;;;;;;;;;;;;;
2023/10/26 10:14:05;;;;;;;;;;;;;;;;;;;;;
2023/10/26 10:19:50;;;;;;;;;;;;;;;;;;;;;
2023/10/26 10:29:35;;;;;;;4.53;1.87;;;;;;;24.66;50.65;98050.41;6125270;23;20182;-91
2023/10/26 10:32:32;;;;;;;5.70;1.60;;;;;;;24.59;50.56;98054.91;6190722;23;20169;-90
2023/10/26 10:35:34;;;;;;;3.17;1.20;;;;;;;24.49;50.71;98059.75;6181401;23;20169;-91
2023/10/26 10:38:12;;;;;;;3.10;1.20;;;;;;;24.58;50.45;98063.94;6180908;23;20181;-91
2023/10/26 10:41:19;;;;;;;4.47;1.20;;;;;;;24.30;50.77;98071.13;6190411;23;20502;-90
2023/10/26 10:43:48;;;;;;;2.73;1.03;;;;;;;24.33;50.37;98055.53;6216560;23;20153;-91
2023/10/26 10:46:18;;;;;;;4.27;1.33;;;;;;;24.35;50.48;98053.47;6216431;23;20153;-91
2023/10/26 10:50:03;;;;;;;2.77;1.07;;;;;;;24.26;51.26;98043.09;6190615;23;20158;-91
2023/10/26 10:52:29;;;;;;;4.63;1.50;;;;;;;24.14;52.10;98045.47;6044328;23;20157;-90
2023/10/26 10:55:50;;;;;;;;;;;;;;;;;;;;;
2023/10/26 10:58:15;;;;;;;4.53;1.10;;;;;;;23.78;53.41;98055.38;6067063;23;20248;-92
2023/10/26 11:00:59;;;;;;;4.90;0.80;;;;;;;23.78;53.82;98042.00;6067478;23;20624;-92
2023/10/26 11:04:02;;;;;;;5.10;1.27;;;;;;;23.70;53.74;98031.41;6131851;23;20470;-92
2023/10/26 11:06:35;;;;;;;3.57;1.50;;;;;;;23.63;54.94;98025.16;6182438;23;20557;-93
2023/10/26 11:09:04;;;;;;;3.37;1.20;;;;;;;23.75;55.13;98015.59;6190704;23;20146;-93
2023/10/26 11:12:11;;;;;;;7.10;1.30;;;;;;;24.07;55.81;97992.84;6216157;23;20169;-92
2023/10/26 11:20:46;;;;;;;4.27;1.00;;;;;;;24.39;55.20;97995.00;6159927;23;20161;-92
2023/10/26 11:23:51;;;;;;;4.00;1.43;;;;;;;24.42;54.43;97973.97;6190638;23;20154;-92
2023/10/26 11:26:27;;;;;;;3.40;1.10;;;;;;;24.39;54.79;97970.88;6210639;23;20650;-92
2023/10/26 11:28:52;;;;;;;2.67;0.73;;;;;;;24.53;53.55;97969.94;6216614;23;20140;-91
2023/10/26 11:31:41;;;;;;;2.83;0.80;;;;;;;24.53;53.69;97961.88;6189917;23;20175;-90
2023/10/26 11:34:15;;;;;;;4.60;1.70;;;;;;;24.39;53.44;97968.22;6190387;23;20272;-92
2023/10/26 11:36:44;;;;;;;4.50;1.17;;;;;;;24.30;52.74;97953.28;6216952;23;20232;-92
2023/10/26 11:39:09;;;;;;;3.43;1.20;;;;;;;24.37;52.77;97959.53;6190016;23;20181;-91
2023/10/26 11:41:37;;;;;;;1.80;0.80;;;;;;;24.28;51.55;97941.97;6216220;23;20577;-92
2023/10/26 11:44:10;;;;;;;5.10;0.80;;;;;;;24.39;51.05;97941.41;6216569;23;20647;-92
2023/10/26 11:46:37;;;;;;;1.50;0.70;;;;;;;24.35;50.87;97924.91;6216000;23;20142;-90
2023/10/26 11:49:10;;;;;;;2.17;0.63;;;;;;;24.26;50.89;97918.06;6216452;23;20145;-93
2023/10/26 11:51:44;;;;;;;1.17;0.57;;;;;;;24.29;50.10;97922.19;6216190;23;20165;-93
2023/10/26 11:54:11;;;;;;;1.10;0.40;;;;;;;24.30;49.27;97919.31;6216057;23;20138;-92
2023/10/26 11:56:37;;;;;;;1.53;0.73;;;;;;;24.27;49.12;97910.84;6189886;23;20181;-92
2023/10/26 11:59:02;;;;;;;3.23;0.60;;;;;;;24.32;48.96;97903.88;6189989;23;20164;-92
2023/10/26 12:01:37;;;;;;;1.60;0.67;;;;;;;24.40;48.87;97902.88;6189892;23;20146;-93
2023/10/26 12:04:25;;;;;;;4.37;0.73;;;;;;;24.28;49.84;97883.03;6189630;23;20160;-90
2023/10/26 12:06:50;;;;;;;3.13;0.77;;;;;;;24.23;50.05;97888.16;6176834;23;20193;-90
2023/10/26 12:09:16;;;;;;;6.80;1.00;;;;;;;24.34;49.37;97890.28;6216253;23;20150;-91
2023/10/26 12:11:43;;;;;;;3.70;0.40;;;;;;;24.35;50.15;97897.28;6216049;23;20173;-91
2023/10/26 12:14:09;;;;;;;2.57;0.70;;;;;;;24.50;49.76;97891.81;6189695;23;20172;-91
2023/10/26 12:16:34;;;;;;;4.70;0.50;;;;;;;24.53;49.39;97886.88;6215599;23;20225;-91
2023/10/26 12:19:00;;;;;;;4.30;0.70;;;;;;;24.58;49.43;97897.03;6189707;23;20154;-90
2023/10/26 12:21:31;;;;;;;5.47;0.60;;;;;;;24.57;49.54;97896.19;6189676;23;20305;-91
2023/10/26 12:23:59;;;;;;;1.97;0.70;;;;;;;24.56;49.14;97891.84;6216056;23;20138;-92
2023/10/26 12:26:24;;;;;;;2.10;0.73;;;;;;;24.68;49.42;97881.41;6215687;23;20211;-90
2023/10/26 12:29:05;;;;;;;2.43;0.57;;;;;;;24.72;48.58;97882.63;6189806;23;20161;-93
2023/10/26 12:31:41;;;;;;;;;;;;;;;;;;;;;
2023/10/26 12:34:10;;;;;;;8.10;0.80;;;;;;;24.77;47.48;97885.53;6215863;23;20225;-91
2023/10/26 12:36:36;;;;;;;1.90;0.60;;;;;;;24.88;47.49;97885.84;6189312;23;20245;-90